createdAt,value
2023-02-15T00:01:42.949Z,55.83
2023-02-15T00:04:11.569Z,56.20
2023-02-15T00:06:41.101Z,56.93
2023-02-15T00:09:09.485Z,54.80
2023-02-15T00:11:50.581Z,55.00
2023-02-15T00:14:19.411Z,55.37
2023-02-15T00:16:47.984Z,60.20
2023-02-15T00:19:17.598Z,56.07
2023-02-15T00:21:47.516Z,53.37
2023-02-15T00:24:16.508Z,52.97
2023-02-15T00:26:45.419Z,55.10
2023-02-15T00:29:14.179Z,58.43
2023-02-15T00:31:42.352Z,56.50
2023-02-15T00:34:13.357Z,56.93
2023-02-15T00:36:41.556Z,61.60
2023-02-15T00:39:11.396Z,52.03
2023-02-15T00:41:39.740Z,52.40
2023-02-15T00:44:08.060Z,54.43
2023-02-15T00:46:36.685Z,58.37
2023-02-15T00:49:05.231Z,53.73
2023-02-15T00:51:33.398Z,55.90
2023-02-15T00:54:01.600Z,58.77
2023-02-15T00:56:31.136Z,56.47
2023-02-15T00:58:59.295Z,54.53
2023-02-15T01:01:27.671Z,55.53
2023-02-15T01:03:56.036Z,58.77
2023-02-15T01:06:24.313Z,54.87
2023-02-15T01:08:52.519Z,53.13
2023-02-15T01:11:23.698Z,53.87
2023-02-15T01:13:53.573Z,54.83
2023-02-15T01:16:21.784Z,56.10
2023-02-15T01:18:50.475Z,55.27
2023-02-15T01:21:19.701Z,57.07
2023-02-15T01:23:47.931Z,58.73
2023-02-15T01:26:16.503Z,52.97
2023-02-15T01:28:44.691Z,53.07
2023-02-15T01:31:14.880Z,52.87
2023-02-15T01:33:43.521Z,53.60
2023-02-15T01:36:12.061Z,57.80
2023-02-15T01:38:40.949Z,54.00
2023-02-15T01:41:28.744Z,55.47
2023-02-15T01:43:57.946Z,56.80
2023-02-15T01:46:30.190Z,53.03
2023-02-15T01:49:01.092Z,56.00
2023-02-15T01:51:32.223Z,55.97
2023-02-15T01:54:02.474Z,55.47
2023-02-15T01:56:32.216Z,55.50
2023-02-15T01:59:02.821Z,51.40
2023-02-15T02:01:32.451Z,52.97
2023-02-15T02:04:02.985Z,51.57
2023-02-15T02:06:31.829Z,52.87
2023-02-15T02:09:00.352Z,53.13
2023-02-15T02:11:28.527Z,53.20
2023-02-15T02:13:57.848Z,52.13
2023-02-15T02:16:27.789Z,50.40
2023-02-15T02:19:03.673Z,53.23
2023-02-15T02:21:49.997Z,51.90
2023-02-15T02:24:30.586Z,53.80
2023-02-15T02:27:12.132Z,51.67
2023-02-15T02:29:52.575Z,57.37
2023-02-15T02:32:38.724Z,50.70
2023-02-15T02:35:12.410Z,53.83
2023-02-15T02:37:46.781Z,50.63
2023-02-15T02:40:19.298Z,49.67
2023-02-15T02:42:51.348Z,53.90
2023-02-15T02:45:22.780Z,52.33
2023-02-15T02:47:53.354Z,50.60
2023-02-15T02:50:24.959Z,52.93
2023-02-15T02:52:54.357Z,49.30
2023-02-15T02:55:25.376Z,50.60
2023-02-15T02:57:56.053Z,52.53
2023-02-15T03:00:26.708Z,50.60
2023-02-15T03:02:59.355Z,49.30
2023-02-15T03:05:29.989Z,49.13
2023-02-15T03:07:58.880Z,48.50
2023-02-15T03:10:27.322Z,49.07
2023-02-15T03:12:55.681Z,50.00
2023-02-15T03:15:24.918Z,49.13
2023-02-15T03:17:54.671Z,50.87
2023-02-15T03:20:26.309Z,49.17
2023-02-15T03:22:58.242Z,48.00
2023-02-15T03:25:28.269Z,47.73
2023-02-15T03:27:58.199Z,46.57
2023-02-15T03:30:27.647Z,49.93
2023-02-15T03:32:56.061Z,50.00
2023-02-15T03:35:25.672Z,49.43
2023-02-15T03:37:56.337Z,49.60
2023-02-15T03:40:41.442Z,50.20
2023-02-15T03:43:13.249Z,51.57
2023-02-15T03:45:55.378Z,50.27
2023-02-15T03:48:25.508Z,44.27
2023-02-15T03:51:12.279Z,50.17
2023-02-15T03:53:40.860Z,48.90
2023-02-15T03:56:10.383Z,48.13
2023-02-15T03:58:56.488Z,46.77
2023-02-15T04:02:00.365Z,50.20
2023-02-15T04:04:30.972Z,47.33
2023-02-15T04:06:59.218Z,47.70
2023-02-15T04:09:45.019Z,47.83
2023-02-15T04:12:14.503Z,46.07
2023-02-15T04:15:00.413Z,48.33
2023-02-15T04:17:28.551Z,47.50
2023-02-15T04:20:14.584Z,45.40
2023-02-15T04:23:00.836Z,48.70
2023-02-15T04:25:29.026Z,42.43
2023-02-15T04:27:58.585Z,46.70
2023-02-15T04:30:28.469Z,45.27
2023-02-15T04:32:58.051Z,44.43
2023-02-15T04:35:26.632Z,44.87
2023-02-15T04:37:54.812Z,46.03
2023-02-15T04:40:22.991Z,45.80
2023-02-15T04:42:51.218Z,46.67
2023-02-15T04:45:20.700Z,46.90
2023-02-15T04:47:48.891Z,48.27
2023-02-15T04:50:17.140Z,45.40
2023-02-15T04:52:45.305Z,46.10
2023-02-15T04:55:13.490Z,47.73
2023-02-15T04:57:41.621Z,47.90
2023-02-15T05:00:10.696Z,49.13
2023-02-15T05:02:40.196Z,52.20
2023-02-15T05:05:10.466Z,48.27
2023-02-15T05:07:38.598Z,46.77
2023-02-15T05:10:07.162Z,46.73
2023-02-15T05:12:35.392Z,51.07
2023-02-15T05:15:03.536Z,52.33
2023-02-15T05:17:31.710Z,52.93
2023-02-15T05:20:01.282Z,53.23
2023-02-15T05:22:29.502Z,47.07
2023-02-15T05:25:15.359Z,46.60
2023-02-15T05:28:06.485Z,49.03
2023-02-15T05:30:34.864Z,52.70
2023-02-15T05:33:03.255Z,54.00
2023-02-15T05:35:32.736Z,49.93
2023-02-15T05:38:00.945Z,48.77
2023-02-15T05:40:29.175Z,45.63
2023-02-15T05:42:58.384Z,49.27
2023-02-15T05:45:26.643Z,51.17
2023-02-15T05:47:55.044Z,49.53
2023-02-15T05:50:23.222Z,49.33
2023-02-15T05:52:53.394Z,49.40
2023-02-15T05:55:21.647Z,55.70
2023-02-15T05:57:49.839Z,51.73
2023-02-15T06:00:18.341Z,52.20
2023-02-15T06:02:46.580Z,49.83
2023-02-15T06:05:14.880Z,52.70
2023-02-15T06:07:45.484Z,50.50
2023-02-15T06:10:15.043Z,45.97
2023-02-15T06:12:43.193Z,48.57
2023-02-15T06:15:11.650Z,54.63
2023-02-15T06:17:39.846Z,52.37
2023-02-15T06:20:09.218Z,54.87
2023-02-15T06:22:37.466Z,54.37
2023-02-15T06:25:05.773Z,54.10
2023-02-15T06:27:35.229Z,57.83
2023-02-15T06:30:03.429Z,54.63
2023-02-15T06:32:31.633Z,53.70
2023-02-15T06:34:59.935Z,52.07
2023-02-15T06:37:28.174Z,53.10
2023-02-15T06:39:56.362Z,53.67
2023-02-15T06:42:24.821Z,55.03
2023-02-15T06:44:54.385Z,52.03
2023-02-15T06:47:28.140Z,47.77
2023-02-15T06:49:56.311Z,53.40
2023-02-15T06:52:24.532Z,47.00
2023-02-15T06:54:52.829Z,50.03
2023-02-15T06:57:20.970Z,50.87
2023-02-15T06:59:49.150Z,51.37
2023-02-15T07:02:18.849Z,53.20
2023-02-15T07:04:47.094Z,53.30
2023-02-15T07:07:15.411Z,49.37
2023-02-15T07:09:43.538Z,51.97
2023-02-15T07:12:29.977Z,55.80
2023-02-15T07:14:59.076Z,54.07
2023-02-15T07:17:36.900Z,58.03
2023-02-15T07:20:05.957Z,55.33
2023-02-15T07:22:35.094Z,56.53
2023-02-15T07:25:03.475Z,56.60
2023-02-15T07:27:31.689Z,54.90
2023-02-15T07:29:59.948Z,57.10
2023-02-15T07:32:31.570Z,55.97
2023-02-15T07:35:00.372Z,61.30
2023-02-15T07:37:29.022Z,59.90
2023-02-15T07:39:57.140Z,58.47
2023-02-15T07:42:25.370Z,61.20
2023-02-15T07:44:53.842Z,57.47
2023-02-15T07:47:22.015Z,60.00
2023-02-15T07:49:51.526Z,57.93
2023-02-15T07:52:19.715Z,59.70
2023-02-15T07:54:47.894Z,57.77
2023-02-15T07:57:16.061Z,59.80
2023-02-15T07:59:44.293Z,62.97
2023-02-15T08:02:12.976Z,59.30
2023-02-15T08:04:41.239Z,61.30
2023-02-15T08:07:10.790Z,61.30
2023-02-15T08:09:38.997Z,59.53
2023-02-15T08:12:07.374Z,60.37
2023-02-15T08:14:35.604Z,63.30
2023-02-15T08:17:05.905Z,60.27
2023-02-15T08:19:35.439Z,60.53
2023-02-15T08:22:04.938Z,59.90
2023-02-15T08:24:35.347Z,54.23
2023-02-15T08:27:06.195Z,66.07
2023-02-15T08:29:35.231Z,61.73
2023-02-15T08:32:05.405Z,58.97
2023-02-15T08:34:34.886Z,62.53
2023-02-15T08:37:03.145Z,63.70
2023-02-15T08:39:31.385Z,61.47
2023-02-15T08:42:00.940Z,61.77
2023-02-15T08:44:29.327Z,60.47
2023-02-15T08:46:59.461Z,65.40
2023-02-15T08:49:27.617Z,60.03
2023-02-15T08:51:55.800Z,62.30
2023-02-15T08:54:24.131Z,62.17
2023-02-15T08:56:52.461Z,62.43
2023-02-15T08:59:23.130Z,64.57
2023-02-15T09:01:52.063Z,60.67
2023-02-15T09:04:20.599Z,63.87
2023-02-15T09:06:49.624Z,60.67
2023-02-15T09:09:18.218Z,60.00
2023-02-15T09:11:47.310Z,65.50
2023-02-15T09:14:21.106Z,62.40
2023-02-15T09:16:52.567Z,61.50
2023-02-15T09:19:21.745Z,65.23
2023-02-15T09:21:50.443Z,61.07
2023-02-15T09:24:19.071Z,59.40
2023-02-15T09:26:48.646Z,63.23
2023-02-15T09:29:17.472Z,58.43
2023-02-15T09:31:47.125Z,63.57
2023-02-15T09:34:17.945Z,63.10
2023-02-15T09:36:46.136Z,63.43
2023-02-15T09:39:15.082Z,65.67
2023-02-15T09:41:58.196Z,58.93
2023-02-15T09:44:30.590Z,56.23
2023-02-15T09:47:13.642Z,59.37
2023-02-15T09:49:45.925Z,58.93
2023-02-15T09:52:24.244Z,57.33
2023-02-15T09:54:59.160Z,54.43
2023-02-15T09:57:31.444Z,57.37
2023-02-15T10:00:05.137Z,58.53
2023-02-15T10:02:40.553Z,59.10
2023-02-15T10:05:15.327Z,57.23
2023-02-15T10:07:51.220Z,62.53
2023-02-15T10:10:26.326Z,56.57
2023-02-15T10:12:59.871Z,55.23
2023-02-15T10:15:45.835Z,59.57
2023-02-15T10:18:23.930Z,57.07
2023-02-15T10:20:58.585Z,57.10
2023-02-15T10:23:42.028Z,60.30
2023-02-15T10:26:14.939Z,58.17
2023-02-15T10:28:45.984Z,53.77
2023-02-15T10:31:17.147Z,54.00
2023-02-15T10:33:46.714Z,60.73
2023-02-15T10:36:23.620Z,53.80
2023-02-15T10:38:55.548Z,52.63
2023-02-15T10:41:30.008Z,59.63
2023-02-15T10:44:04.389Z,49.60
2023-02-15T10:46:44.523Z,55.90
2023-02-15T10:49:25.987Z,51.80
2023-02-15T10:52:01.744Z,51.00
2023-02-15T10:54:34.088Z,53.67
2023-02-15T10:57:05.654Z,54.17
2023-02-15T10:59:39.262Z,50.63
2023-02-15T11:02:18.781Z,51.90
2023-02-15T11:04:56.014Z,51.87
2023-02-15T11:07:26.825Z,52.33
2023-02-15T11:09:59.525Z,51.30
2023-02-15T11:12:30.024Z,53.90
2023-02-15T11:15:00.804Z,56.43
2023-02-15T11:17:31.036Z,51.60
2023-02-15T11:20:03.782Z,52.83
2023-02-15T11:22:34.740Z,55.97
2023-02-15T11:25:03.968Z,48.40
2023-02-15T11:27:33.882Z,51.43
2023-02-15T11:30:03.621Z,50.57
2023-02-15T11:32:34.749Z,49.60
2023-02-15T11:35:05.538Z,51.63
2023-02-15T11:37:38.648Z,50.57
2023-02-15T11:40:15.326Z,52.00
2023-02-15T11:42:43.510Z,47.77
2023-02-15T11:45:21.244Z,46.67
2023-02-15T11:47:49.435Z,49.43
2023-02-15T11:50:19.249Z,47.10
2023-02-15T11:52:49.017Z,46.50
2023-02-15T11:55:20.315Z,47.47
2023-02-15T11:57:50.758Z,49.03
2023-02-15T12:00:22.958Z,48.17
2023-02-15T12:02:54.771Z,46.10
2023-02-15T12:05:24.219Z,50.20
2023-02-15T12:07:55.304Z,48.47
2023-02-15T12:10:26.868Z,46.13
2023-02-15T12:13:11.060Z,51.63
2023-02-15T12:15:40.009Z,46.87
2023-02-15T12:18:18.511Z,47.07
2023-02-15T12:20:46.693Z,48.00
2023-02-15T12:23:17.475Z,47.63
2023-02-15T12:25:53.214Z,55.13
2023-02-15T12:28:27.143Z,48.60
2023-02-15T12:30:56.483Z,48.07
2023-02-15T12:33:28.361Z,44.70
2023-02-15T12:36:00.950Z,47.13
2023-02-15T12:38:30.668Z,46.30
2023-02-15T12:41:03.139Z,48.00
2023-02-15T12:43:34.630Z,49.63
2023-02-15T12:46:23.759Z,49.53
2023-02-15T12:49:08.742Z,48.60
2023-02-15T12:51:47.405Z,49.63
2023-02-15T12:54:23.425Z,50.23
2023-02-15T12:56:51.866Z,42.37
2023-02-15T12:59:23.222Z,47.20
2023-02-15T13:01:52.273Z,46.07
2023-02-15T13:04:23.929Z,45.83
2023-02-15T13:06:53.809Z,45.30
2023-02-15T13:09:28.825Z,48.60
2023-02-15T13:11:57.381Z,46.13
2023-02-15T13:14:31.005Z,48.83
2023-02-15T13:17:00.453Z,49.63
2023-02-15T13:19:32.121Z,47.33
2023-02-15T13:22:00.657Z,44.67
2023-02-15T13:24:31.704Z,50.10
2023-02-15T13:27:14.452Z,47.90
2023-02-15T13:29:45.827Z,48.63
2023-02-15T13:32:16.039Z,49.90
2023-02-15T13:34:44.209Z,50.03
2023-02-15T13:37:17.482Z,50.90
2023-02-15T13:39:48.486Z,49.70
2023-02-15T13:42:22.456Z,47.97
2023-02-15T13:45:05.172Z,48.37
2023-02-15T13:47:37.157Z,49.63
2023-02-15T13:50:11.593Z,52.03
2023-02-15T13:52:43.672Z,49.77
2023-02-15T13:55:23.911Z,45.57
2023-02-15T13:57:57.928Z,53.53
2023-02-15T14:00:29.020Z,48.00
2023-02-15T14:03:04.285Z,51.93
2023-02-15T14:05:38.446Z,46.87
2023-02-15T14:08:11.748Z,45.70
2023-02-15T14:10:45.190Z,43.80
2023-02-15T14:13:43.551Z,44.10
2023-02-15T14:16:14.624Z,45.60
2023-02-15T14:18:44.553Z,44.00
2023-02-15T14:21:16.047Z,48.23
2023-02-15T14:23:51.327Z,47.63
2023-02-15T14:26:24.184Z,44.93
2023-02-15T14:28:58.230Z,44.93
2023-02-15T14:31:29.269Z,46.70
2023-02-15T14:33:58.501Z,48.77
2023-02-15T14:36:27.635Z,41.73
2023-02-15T14:39:31.222Z,48.40
2023-02-15T14:42:02.754Z,49.27
2023-02-15T14:44:36.432Z,48.97
2023-02-15T14:47:08.364Z,47.37
2023-02-15T14:49:38.735Z,45.23
2023-02-15T14:52:09.330Z,44.87
2023-02-15T14:55:00.690Z,45.73
2023-02-15T14:57:34.968Z,46.67
2023-02-15T15:00:09.123Z,46.23
2023-02-15T15:02:44.945Z,40.40
2023-02-15T15:05:14.869Z,44.47
2023-02-15T15:07:45.543Z,46.73
2023-02-15T15:10:32.610Z,48.93
2023-02-15T15:13:22.134Z,45.37
2023-02-15T15:15:50.437Z,48.03
2023-02-15T15:18:33.459Z,48.47
2023-02-15T15:21:01.992Z,46.60
2023-02-15T15:23:45.095Z,43.17
2023-02-15T15:26:49.511Z,46.10
2023-02-15T15:29:40.026Z,46.07
2023-02-15T15:32:10.974Z,44.93
2023-02-15T15:35:02.140Z,46.37
2023-02-15T15:37:45.208Z,47.07
2023-02-15T15:40:25.154Z,48.57
2023-02-15T15:43:02.184Z,50.07
2023-02-15T15:46:00.077Z,43.47
2023-02-15T15:48:32.547Z,47.27
2023-02-15T15:51:01.769Z,42.03
2023-02-15T15:53:31.478Z,45.27
2023-02-15T15:56:01.986Z,43.10
2023-02-15T15:58:32.592Z,50.43
2023-02-15T16:01:05.466Z,46.20
2023-02-15T16:03:33.685Z,46.67
2023-02-15T16:06:02.455Z,45.37
2023-02-15T16:08:32.144Z,45.90
2023-02-15T16:11:00.611Z,51.83
2023-02-15T16:13:29.207Z,48.27
2023-02-15T16:15:58.304Z,46.53
2023-02-15T16:18:29.084Z,47.93
2023-02-15T16:20:58.202Z,46.23
2023-02-15T16:23:39.777Z,46.37
2023-02-15T16:26:12.270Z,45.43
2023-02-15T16:28:40.756Z,47.97
2023-02-15T16:31:12.839Z,51.40
2023-02-15T16:33:43.581Z,46.23
2023-02-15T16:36:13.395Z,47.27
2023-02-15T16:39:02.562Z,44.70
2023-02-15T16:41:31.704Z,40.90
2023-02-15T16:44:02.069Z,47.77
2023-02-15T16:46:33.576Z,43.53
2023-02-15T16:49:04.294Z,42.90
2023-02-15T16:51:33.916Z,44.43
2023-02-15T16:54:06.702Z,45.57
2023-02-15T16:56:35.286Z,48.13
2023-02-15T16:59:04.326Z,45.10
2023-02-15T17:01:33.605Z,43.97
2023-02-15T17:04:14.981Z,47.43
2023-02-15T17:06:43.200Z,47.33
2023-02-15T17:09:19.414Z,45.53
2023-02-15T17:11:47.744Z,49.33
2023-02-15T17:14:22.828Z,43.80
2023-02-15T17:16:52.202Z,43.47
2023-02-15T17:19:23.699Z,43.50
2023-02-15T17:21:53.721Z,41.10
2023-02-15T17:24:24.886Z,46.90
2023-02-15T17:26:54.488Z,45.27
2023-02-15T17:29:26.064Z,42.00
2023-02-15T17:31:55.114Z,42.93
2023-02-15T17:34:41.864Z,43.20
2023-02-15T17:37:14.637Z,42.53
2023-02-15T17:39:42.904Z,41.73
2023-02-15T17:42:11.086Z,39.83
2023-02-15T17:44:39.302Z,43.23
2023-02-15T17:47:07.742Z,40.47
2023-02-15T17:49:37.910Z,37.87
2023-02-15T17:52:06.446Z,41.50
2023-02-15T17:54:53.777Z,41.10
2023-02-15T17:57:22.013Z,36.53
2023-02-15T18:00:07.797Z,38.80
2023-02-15T18:02:54.960Z,37.73
2023-02-15T18:05:40.870Z,37.37
2023-02-15T18:08:29.923Z,35.33
2023-02-15T18:11:17.366Z,37.93
2023-02-15T18:13:45.555Z,38.00
2023-02-15T18:16:15.489Z,39.03
2023-02-15T18:18:44.350Z,36.03
2023-02-15T18:21:13.015Z,36.27
2023-02-15T18:23:42.412Z,36.93
2023-02-15T18:26:12.912Z,35.53
2023-02-15T18:28:41.150Z,39.03
2023-02-15T18:31:09.445Z,37.87
2023-02-15T18:33:39.182Z,35.60
2023-02-15T18:36:08.436Z,36.13
2023-02-15T18:38:36.594Z,38.90
2023-02-15T18:41:05.344Z,37.67
2023-02-15T18:43:34.968Z,36.73
2023-02-15T18:46:03.181Z,33.07
2023-02-15T18:48:32.917Z,36.77
2023-02-15T18:51:01.519Z,37.90
2023-02-15T18:53:29.898Z,38.40
2023-02-15T18:55:58.092Z,35.60
2023-02-15T18:58:28.030Z,39.57
2023-02-15T19:01:00.196Z,40.03
2023-02-15T19:03:28.408Z,34.07
2023-02-15T19:05:56.692Z,37.23
2023-02-15T19:08:25.487Z,35.83
2023-02-15T19:10:53.880Z,38.97
2023-02-15T19:13:22.104Z,37.40
2023-02-15T19:15:50.315Z,40.20
2023-02-15T19:18:20.145Z,36.77
2023-02-15T19:20:49.200Z,41.30
2023-02-15T19:23:21.730Z,39.67
2023-02-15T19:25:51.007Z,40.23
2023-02-15T19:28:21.734Z,41.23
2023-02-15T19:30:50.265Z,41.43
2023-02-15T19:33:23.803Z,40.77
2023-02-15T19:35:55.449Z,43.63
2023-02-15T19:38:25.018Z,41.20
2023-02-15T19:40:53.364Z,40.27
2023-02-15T19:43:26.028Z,43.00
2023-02-15T19:45:54.820Z,42.97
2023-02-15T19:48:24.792Z,45.60
2023-02-15T19:50:53.619Z,41.90
2023-02-15T19:53:23.233Z,46.67
2023-02-15T19:55:52.087Z,46.77
2023-02-15T19:58:20.356Z,44.97
2023-02-15T20:00:49.374Z,45.80
2023-02-15T20:03:17.985Z,45.77
2023-02-15T20:05:47.629Z,47.93
2023-02-15T20:08:18.357Z,46.37
2023-02-15T20:10:46.572Z,47.20
2023-02-15T20:13:15.932Z,45.70
2023-02-15T20:15:44.626Z,44.20
2023-02-15T20:18:13.294Z,44.43
2023-02-15T20:20:43.486Z,44.30
2023-02-15T20:23:23.343Z,43.63
2023-02-15T20:25:52.212Z,42.60
2023-02-15T20:28:22.278Z,44.93
2023-02-15T20:30:50.799Z,46.37
2023-02-15T20:33:19.229Z,42.33
2023-02-15T20:35:47.707Z,43.03
2023-02-15T20:38:19.437Z,49.03
2023-02-15T20:41:06.831Z,46.03
2023-02-15T20:43:35.417Z,42.87
2023-02-15T20:46:04.525Z,46.40
2023-02-15T20:48:32.894Z,44.23
2023-02-15T20:51:01.424Z,45.40
2023-02-15T20:53:30.585Z,44.27
2023-02-15T20:56:00.196Z,45.37
2023-02-15T20:58:29.967Z,44.27
2023-02-15T21:00:59.084Z,46.67
2023-02-15T21:03:31.196Z,45.47
2023-02-15T21:05:59.568Z,48.03
2023-02-15T21:08:28.489Z,46.63
2023-02-15T21:10:57.046Z,43.87
2023-02-15T21:13:27.518Z,43.50
2023-02-15T21:15:56.674Z,46.37
2023-02-15T21:18:25.568Z,46.03
2023-02-15T21:20:54.699Z,46.27
2023-02-15T21:23:24.818Z,43.07
2023-02-15T21:25:53.291Z,45.13
2023-02-15T21:28:22.094Z,44.70
2023-02-15T21:30:52.434Z,49.30
2023-02-15T21:33:20.931Z,47.20
2023-02-15T21:35:50.838Z,45.90
2023-02-15T21:38:20.726Z,48.33
2023-02-15T21:40:49.365Z,51.13
2023-02-15T21:43:35.868Z,50.00
2023-02-15T21:46:31.111Z,51.67
2023-02-15T21:48:59.316Z,47.93
2023-02-15T21:51:45.137Z,47.63
2023-02-15T21:54:14.266Z,45.13
2023-02-15T21:56:42.715Z,49.47
2023-02-15T21:59:12.451Z,50.47
2023-02-15T22:01:42.761Z,49.00
2023-02-15T22:04:14.242Z,47.80
2023-02-15T22:06:42.486Z,49.10
2023-02-15T22:09:15.376Z,48.13
2023-02-15T22:11:43.518Z,51.27
2023-02-15T22:14:29.094Z,53.33
2023-02-15T22:16:58.662Z,49.03
2023-02-15T22:19:26.790Z,51.43
2023-02-15T22:21:54.929Z,55.90
2023-02-15T22:24:23.102Z,53.23
2023-02-15T22:26:51.260Z,51.97
2023-02-15T22:29:19.601Z,50.10
2023-02-15T22:31:49.184Z,51.17
2023-02-15T22:34:26.035Z,50.83
2023-02-15T22:36:54.400Z,55.53
2023-02-15T22:39:24.204Z,55.47
2023-02-15T22:41:52.601Z,53.17
2023-02-15T22:44:23.311Z,55.93
2023-02-15T22:46:51.517Z,51.97
2023-02-15T22:49:19.648Z,51.20
2023-02-15T22:51:50.092Z,52.07
2023-02-15T22:54:18.929Z,52.57
2023-02-15T22:56:48.402Z,50.97
2023-02-15T22:59:18.761Z,54.90
2023-02-15T23:01:46.967Z,54.87
2023-02-15T23:04:17.803Z,55.13
2023-02-15T23:06:45.978Z,53.50
2023-02-15T23:09:16.065Z,51.33
2023-02-15T23:11:45.902Z,55.87
2023-02-15T23:14:25.306Z,54.33
2023-02-15T23:16:53.662Z,56.27
2023-02-15T23:19:21.866Z,55.13
2023-02-15T23:21:50.298Z,53.00
2023-02-15T23:24:22.382Z,52.07
2023-02-15T23:26:51.247Z,56.90
2023-02-15T23:29:20.403Z,60.27
2023-02-15T23:31:50.177Z,58.47
2023-02-15T23:34:20.530Z,54.13
2023-02-15T23:36:48.656Z,55.67
2023-02-15T23:39:35.400Z,57.03
2023-02-15T23:42:06.685Z,56.17
2023-02-15T23:44:35.554Z,57.30
2023-02-15T23:47:04.139Z,56.33
2023-02-15T23:49:32.276Z,60.23
2023-02-15T23:52:00.456Z,56.80
2023-02-15T23:54:28.677Z,54.93
2023-02-15T23:56:59.197Z,56.13
2023-02-15T23:59:29.876Z,58.20
